createdAt,value
2022-12-12T00:00:09.429Z,29.27
2022-12-12T00:02:40.167Z,27.02
2022-12-12T00:05:08.276Z,24.75
2022-12-12T00:07:35.733Z,27.15
2022-12-12T00:10:02.924Z,26.77
2022-12-12T00:12:30.079Z,28.02
2022-12-12T00:14:57.280Z,28.65
2022-12-12T00:17:24.468Z,26.15
2022-12-12T00:19:51.592Z,27.73
2022-12-12T00:22:18.740Z,28.73
2022-12-12T00:24:45.922Z,27.30
2022-12-12T00:27:13.110Z,30.67
2022-12-12T00:29:40.373Z,27.08
2022-12-12T00:32:07.570Z,27.02
2022-12-12T00:34:34.736Z,26.05
2022-12-12T00:37:01.872Z,27.23
2022-12-12T00:39:29.018Z,27.73
2022-12-12T00:41:56.176Z,26.58
2022-12-12T00:44:23.359Z,26.50
2022-12-12T00:46:50.522Z,27.83
2022-12-12T00:49:17.715Z,26.95
2022-12-12T00:51:45.189Z,26.02
2022-12-12T00:54:12.491Z,25.83
2022-12-12T00:56:40.586Z,26.25
2022-12-12T00:59:07.792Z,26.30
2022-12-12T01:01:35.472Z,25.52
2022-12-12T01:04:04.723Z,25.52
2022-12-12T01:06:31.981Z,25.77
2022-12-12T01:08:59.170Z,26.95
2022-12-12T01:11:26.824Z,28.08
2022-12-12T01:13:54.537Z,26.15
2022-12-12T01:16:22.385Z,24.63
2022-12-12T01:18:49.869Z,27.25
2022-12-12T01:21:18.094Z,26.13
2022-12-12T01:23:45.272Z,26.63
2022-12-12T01:26:14.132Z,27.20
2022-12-12T01:28:42.561Z,26.27
2022-12-12T01:31:10.378Z,25.88
2022-12-12T01:33:37.872Z,26.15
2022-12-12T01:36:05.843Z,26.48
2022-12-12T01:38:33.164Z,28.02
2022-12-12T01:41:00.290Z,27.83
2022-12-12T01:43:29.112Z,27.00
2022-12-12T01:45:59.637Z,26.58
2022-12-12T01:48:34.689Z,26.13
2022-12-12T01:53:30.462Z,26.83
2022-12-12T01:55:58.190Z,27.63
2022-12-12T01:58:25.845Z,27.10
2022-12-12T02:00:53.155Z,26.48
2022-12-12T02:03:20.325Z,27.90
2022-12-12T02:05:52.847Z,26.77
2022-12-12T02:08:21.878Z,27.08
2022-12-12T02:10:49.192Z,28.85
2022-12-12T02:13:19.670Z,28.00
2022-12-12T02:15:49.589Z,28.40
2022-12-12T02:18:29.225Z,28.35
2022-12-12T02:21:07.539Z,27.92
2022-12-12T02:23:50.736Z,26.42
2022-12-12T02:26:36.816Z,26.13
2022-12-12T02:29:25.786Z,27.95
2022-12-12T02:31:57.753Z,26.65
2022-12-12T02:34:30.877Z,27.63
2022-12-12T02:36:57.999Z,27.05
2022-12-12T02:39:34.234Z,28.27
2022-12-12T02:42:03.992Z,27.65
2022-12-12T02:44:31.136Z,27.63
2022-12-12T02:47:13.516Z,28.02
2022-12-12T02:49:48.846Z,27.58
2022-12-12T02:52:17.380Z,28.55
2022-12-12T02:54:44.628Z,26.90
2022-12-12T02:57:16.563Z,27.63
2022-12-12T02:59:45.985Z,28.85
2022-12-12T03:02:15.989Z,27.95
2022-12-12T03:05:16.976Z,29.20
2022-12-12T03:07:53.682Z,26.33
2022-12-12T03:10:20.820Z,29.15
2022-12-12T03:12:58.849Z,27.58
2022-12-12T03:15:37.781Z,28.05
2022-12-12T03:18:23.415Z,27.30
2022-12-12T03:20:52.966Z,29.10
2022-12-12T03:23:25.893Z,31.08
2022-12-12T03:25:56.052Z,29.38
2022-12-12T03:28:23.167Z,28.92
2022-12-12T03:30:53.176Z,28.15
2022-12-12T03:33:25.689Z,29.48
2022-12-12T03:35:59.337Z,30.15
2022-12-12T03:38:30.503Z,33.08
2022-12-12T03:40:59.775Z,28.27
2022-12-12T03:43:28.868Z,29.20
2022-12-12T03:46:02.136Z,29.13
2022-12-12T03:48:35.432Z,28.88
2022-12-12T03:51:05.310Z,30.50
2022-12-12T03:53:58.991Z,29.65
2022-12-12T03:56:49.451Z,29.92
2022-12-12T03:59:35.597Z,28.67
2022-12-12T04:02:05.779Z,28.50
2022-12-12T04:04:39.922Z,30.27
2022-12-12T04:07:14.618Z,29.23
2022-12-12T04:10:11.619Z,31.33
2022-12-12T04:12:59.776Z,30.73
2022-12-12T04:15:40.623Z,28.67
2022-12-12T04:18:20.571Z,28.05
2022-12-12T04:21:24.370Z,32.20
2022-12-12T04:24:10.064Z,27.05
2022-12-12T04:26:39.467Z,28.48
2022-12-12T04:29:17.504Z,30.17
2022-12-12T04:31:51.704Z,29.77
2022-12-12T04:34:23.288Z,29.27
2022-12-12T04:36:50.923Z,28.75
2022-12-12T04:39:19.681Z,30.98
2022-12-12T04:41:48.854Z,30.45
2022-12-12T04:44:17.079Z,29.48
2022-12-12T04:46:45.567Z,29.05
2022-12-12T04:49:15.586Z,32.70
2022-12-12T04:51:45.283Z,28.83
2022-12-12T04:54:31.215Z,28.98
2022-12-12T04:57:00.371Z,30.67
2022-12-12T04:59:27.692Z,29.30
2022-12-12T05:01:54.837Z,30.52
2022-12-12T05:04:25.436Z,27.75
2022-12-12T05:06:55.890Z,30.15
2022-12-12T05:09:23.107Z,27.90
2022-12-12T05:11:50.317Z,30.63
2022-12-12T05:14:18.437Z,30.27
2022-12-12T05:16:50.552Z,30.77
2022-12-12T05:19:17.800Z,31.33
2022-12-12T05:21:44.980Z,30.75
2022-12-12T05:24:12.120Z,29.98
2022-12-12T05:26:39.506Z,31.10
2022-12-12T05:29:07.659Z,31.23
2022-12-12T05:31:35.220Z,28.90
2022-12-12T05:34:02.437Z,30.23
2022-12-12T05:36:29.606Z,30.27
2022-12-12T05:38:56.779Z,29.90
2022-12-12T05:41:23.966Z,30.48
2022-12-12T05:43:51.133Z,30.88
2022-12-12T05:46:18.333Z,30.35
2022-12-12T05:48:50.477Z,31.27
2022-12-12T05:51:21.036Z,29.95
2022-12-12T05:53:48.196Z,31.85
2022-12-12T05:56:15.367Z,30.55
2022-12-12T05:58:42.970Z,32.38
2022-12-12T06:01:10.217Z,31.83
2022-12-12T06:03:37.559Z,32.40
2022-12-12T06:06:05.036Z,32.83
2022-12-12T06:08:32.308Z,34.17
2022-12-12T06:10:59.559Z,31.13
2022-12-12T06:13:26.706Z,31.50
2022-12-12T06:15:53.896Z,31.08
2022-12-12T06:18:21.185Z,33.03
2022-12-12T06:20:48.330Z,31.00
2022-12-12T06:23:15.501Z,31.33
2022-12-12T06:25:42.629Z,33.58
2022-12-12T06:28:10.393Z,31.90
2022-12-12T06:30:37.575Z,32.03
2022-12-12T06:33:04.807Z,31.50
2022-12-12T06:35:31.959Z,31.13
2022-12-12T06:37:59.176Z,31.25
2022-12-12T06:40:26.348Z,30.77
2022-12-12T06:42:53.489Z,31.88
2022-12-12T06:45:20.746Z,30.55
2022-12-12T06:47:47.958Z,32.05
2022-12-12T06:50:16.834Z,31.83
2022-12-12T06:52:49.125Z,33.40
2022-12-12T06:55:16.309Z,34.75
2022-12-12T06:57:43.468Z,33.58
2022-12-12T07:00:10.887Z,32.00
2022-12-12T07:02:38.081Z,32.47
2022-12-12T07:05:05.371Z,31.30
2022-12-12T07:07:32.515Z,34.08
2022-12-12T07:09:59.684Z,32.95
2022-12-12T07:12:27.334Z,31.48
2022-12-12T07:14:54.546Z,34.53
2022-12-12T07:17:21.697Z,33.30
2022-12-12T07:19:48.848Z,33.85
2022-12-12T07:22:16.000Z,32.63
2022-12-12T07:24:43.163Z,32.00
2022-12-12T07:27:10.292Z,32.30
2022-12-12T07:29:37.448Z,36.20
2022-12-12T07:32:04.662Z,33.83
2022-12-12T07:34:32.570Z,35.10
2022-12-12T07:37:03.053Z,33.70
2022-12-12T07:39:33.826Z,34.15
2022-12-12T07:42:01.231Z,31.17
2022-12-12T07:44:28.461Z,33.15
2022-12-12T07:46:58.113Z,33.05
2022-12-12T07:49:25.539Z,34.90
2022-12-12T07:51:52.687Z,35.47
2022-12-12T07:54:19.923Z,35.83
2022-12-12T07:56:47.214Z,34.72
2022-12-12T07:59:14.426Z,35.75
2022-12-12T08:01:41.762Z,34.95
2022-12-12T08:04:08.996Z,33.50
2022-12-12T08:06:36.168Z,36.05
2022-12-12T08:09:03.370Z,34.28
2022-12-12T08:11:30.638Z,35.55
2022-12-12T08:13:57.834Z,35.67
2022-12-12T08:16:26.206Z,33.88
2022-12-12T08:18:57.442Z,37.22
2022-12-12T08:21:26.406Z,33.85
2022-12-12T08:23:57.965Z,33.90
2022-12-12T08:26:26.230Z,33.22
2022-12-12T08:28:53.694Z,33.33
2022-12-12T08:31:21.404Z,34.20
2022-12-12T08:33:50.549Z,34.88
2022-12-12T08:36:19.152Z,35.28
2022-12-12T08:38:46.396Z,34.22
2022-12-12T08:41:14.530Z,35.20
2022-12-12T08:43:42.594Z,32.33
2022-12-12T08:46:16.804Z,33.08
2022-12-12T08:48:44.884Z,37.65
2022-12-12T08:51:12.065Z,34.42
2022-12-12T08:53:39.235Z,36.28
2022-12-12T08:56:06.701Z,34.83
2022-12-12T08:58:33.841Z,36.60
2022-12-12T09:01:01.018Z,34.17
2022-12-12T09:03:29.797Z,34.08
2022-12-12T09:05:57.129Z,35.33
2022-12-12T09:08:24.753Z,36.67
2022-12-12T09:10:52.093Z,35.88
2022-12-12T09:13:20.874Z,36.10
2022-12-12T09:15:51.277Z,35.78
2022-12-12T09:18:18.984Z,35.47
2022-12-12T09:20:52.683Z,34.53
2022-12-12T09:23:20.399Z,33.97
2022-12-12T09:25:47.739Z,33.33
2022-12-12T09:28:15.983Z,34.92
2022-12-12T09:30:43.456Z,36.28
2022-12-12T09:33:10.843Z,33.80
2022-12-12T09:35:38.016Z,33.83
2022-12-12T09:38:09.517Z,33.95
2022-12-12T09:40:47.348Z,34.25
2022-12-12T09:43:17.471Z,31.25
2022-12-12T09:45:45.296Z,34.30
2022-12-12T09:48:15.799Z,32.33
2022-12-12T09:50:45.963Z,33.60
2022-12-12T09:53:14.586Z,33.05
2022-12-12T09:55:53.772Z,30.63
2022-12-12T09:58:36.055Z,31.92
2022-12-12T10:01:06.129Z,33.00
2022-12-12T10:03:52.202Z,32.65
2022-12-12T10:09:07.099Z,29.52
2022-12-12T10:11:51.620Z,30.75
2022-12-12T10:14:32.532Z,32.80
2022-12-12T10:17:00.245Z,31.33
2022-12-12T10:19:29.751Z,31.15
2022-12-12T10:22:01.809Z,34.00
2022-12-12T10:24:31.611Z,30.92
2022-12-12T10:26:59.600Z,31.30
2022-12-12T10:29:27.382Z,31.60
2022-12-12T10:32:07.775Z,30.75
2022-12-12T10:34:55.329Z,32.13
2022-12-12T10:37:37.708Z,29.80
2022-12-12T10:40:14.054Z,30.33
2022-12-12T10:43:00.035Z,28.58
2022-12-12T10:45:44.625Z,30.05
2022-12-12T10:48:11.946Z,29.80
2022-12-12T10:50:43.459Z,30.33
2022-12-12T10:53:11.487Z,29.83
2022-12-12T10:55:44.922Z,29.98
2022-12-12T10:58:12.546Z,30.83
2022-12-12T11:00:41.329Z,30.25
2022-12-12T11:03:28.468Z,28.80
2022-12-12T11:05:56.648Z,28.20
2022-12-12T11:08:31.080Z,29.52
2022-12-12T11:11:04.221Z,30.85
2022-12-12T11:13:31.884Z,29.17
2022-12-12T11:16:11.671Z,28.90
2022-12-12T11:18:40.615Z,28.17
2022-12-12T11:21:09.809Z,29.90
2022-12-12T11:23:39.688Z,29.33
2022-12-12T11:26:17.410Z,27.88
2022-12-12T11:28:45.719Z,28.95
2022-12-12T11:31:14.603Z,28.45
2022-12-12T11:33:49.920Z,27.42
2022-12-12T11:36:18.303Z,28.17
2022-12-12T11:38:53.647Z,26.35
2022-12-12T11:41:20.811Z,26.60
2022-12-12T11:43:50.803Z,25.80
2022-12-12T11:46:19.219Z,25.92
2022-12-12T11:48:52.366Z,25.83
2022-12-12T11:51:39.781Z,25.83
2022-12-12T11:54:19.175Z,26.70
2022-12-12T11:56:58.716Z,26.92
2022-12-12T11:59:37.943Z,27.50
2022-12-12T12:02:17.044Z,26.35
2022-12-12T12:04:54.728Z,27.55
2022-12-12T12:07:54.490Z,24.88
2022-12-12T12:10:40.467Z,25.70
2022-12-12T12:13:13.610Z,25.38
2022-12-12T12:15:40.753Z,27.23
2022-12-12T12:18:10.922Z,26.30
2022-12-12T12:20:38.486Z,24.35
2022-12-12T12:23:14.147Z,24.27
2022-12-12T12:25:53.731Z,25.58
2022-12-12T12:28:33.304Z,27.10
2022-12-12T12:31:22.247Z,27.15
2022-12-12T12:33:52.545Z,27.23
2022-12-12T12:36:22.718Z,26.40
2022-12-12T12:38:57.723Z,22.88
2022-12-12T12:44:01.103Z,24.98
2022-12-12T12:47:03.548Z,25.20
2022-12-12T12:49:40.302Z,26.27
2022-12-12T12:52:27.788Z,25.65
2022-12-12T12:54:58.066Z,24.88
2022-12-12T12:57:28.927Z,26.05
2022-12-12T12:59:58.448Z,26.75
2022-12-12T13:02:44.459Z,23.92
2022-12-12T13:05:20.054Z,26.85
2022-12-12T13:07:51.893Z,26.60
2022-12-12T13:10:27.221Z,25.38
2022-12-12T13:13:05.537Z,26.17
2022-12-12T13:15:39.466Z,27.60
2022-12-12T13:18:11.592Z,28.67
2022-12-12T13:20:42.782Z,25.70
2022-12-12T13:23:28.679Z,25.90
2022-12-12T13:26:08.063Z,27.77
2022-12-12T13:28:40.044Z,26.02
2022-12-12T13:31:19.594Z,26.17
2022-12-12T13:33:54.306Z,26.52
2022-12-12T13:36:29.060Z,25.27
2022-12-12T13:38:58.541Z,28.63
2022-12-12T13:41:25.763Z,27.05
2022-12-12T13:44:00.201Z,27.00
2022-12-12T13:46:27.583Z,27.45
2022-12-12T13:49:07.019Z,29.63
2022-12-12T13:51:35.527Z,29.95
2022-12-12T13:54:13.199Z,30.55
2022-12-12T13:56:59.040Z,27.23
2022-12-12T14:01:56.243Z,25.75
2022-12-12T14:04:26.235Z,29.67
2022-12-12T14:07:01.255Z,30.63
2022-12-12T14:12:34.816Z,29.00
2022-12-12T14:15:03.707Z,31.00
2022-12-12T14:17:36.856Z,28.10
2022-12-12T14:20:09.267Z,28.48
2022-12-12T14:22:39.232Z,30.85
2022-12-12T14:25:09.403Z,31.30
2022-12-12T14:27:51.568Z,32.42
2022-12-12T14:30:26.488Z,30.38
2022-12-12T14:32:59.785Z,32.00
2022-12-12T14:35:26.900Z,34.45
2022-12-12T14:37:57.069Z,33.65
2022-12-12T14:40:47.590Z,32.10
2022-12-12T14:43:23.013Z,32.20
2022-12-12T14:45:50.605Z,32.42
2022-12-12T14:48:22.522Z,35.42
2022-12-12T14:50:58.334Z,33.60
2022-12-12T14:53:27.748Z,33.70
2022-12-12T14:55:58.886Z,34.08
2022-12-12T14:58:28.249Z,33.55
2022-12-12T15:00:57.295Z,34.85
2022-12-12T15:03:26.718Z,34.05
2022-12-12T15:06:26.444Z,33.95
2022-12-12T15:08:53.845Z,32.65
2022-12-12T15:11:25.413Z,37.08
2022-12-12T15:13:56.734Z,33.08
2022-12-12T15:16:30.072Z,35.15
2022-12-12T15:18:57.969Z,34.42
2022-12-12T15:21:25.160Z,34.90
2022-12-12T15:23:52.532Z,36.78
2022-12-12T15:26:26.323Z,33.50
2022-12-12T15:28:53.617Z,34.97
2022-12-12T15:31:21.154Z,34.45
2022-12-12T15:33:49.010Z,34.17
2022-12-12T15:36:27.707Z,33.20
2022-12-12T15:39:12.784Z,33.00
2022-12-12T15:41:39.984Z,33.20
2022-12-12T15:44:07.394Z,34.00
2022-12-12T15:46:34.740Z,33.42
2022-12-12T15:49:01.923Z,31.90
2022-12-12T15:51:30.122Z,32.97
2022-12-12T15:53:57.391Z,30.60
2022-12-12T15:56:31.294Z,30.27
2022-12-12T15:59:18.715Z,28.25
2022-12-12T16:01:46.018Z,26.55
2022-12-12T16:04:13.140Z,26.52
2022-12-12T16:06:41.756Z,28.30
2022-12-12T16:09:12.113Z,25.48
2022-12-12T16:11:46.914Z,26.13
2022-12-12T16:14:39.564Z,28.02
2022-12-12T16:17:13.723Z,30.80
2022-12-12T16:19:40.905Z,31.48
2022-12-12T16:22:14.549Z,36.10
2022-12-12T16:24:46.046Z,34.75
2022-12-12T16:27:13.432Z,32.42
2022-12-12T16:29:40.563Z,31.27
2022-12-12T16:32:07.784Z,29.67
2022-12-12T16:34:34.904Z,31.17
2022-12-12T16:37:02.039Z,29.83
2022-12-12T16:39:29.303Z,31.55
2022-12-12T16:41:56.655Z,30.80
2022-12-12T16:44:23.989Z,32.33
2022-12-12T16:46:51.118Z,32.13
2022-12-12T16:49:18.275Z,34.65
2022-12-12T16:51:45.413Z,34.25
2022-12-12T16:54:15.494Z,34.30
2022-12-12T16:56:43.150Z,34.47
2022-12-12T16:59:10.291Z,35.78
2022-12-12T17:01:39.049Z,35.10
2022-12-12T17:04:07.699Z,35.80
2022-12-12T17:06:34.873Z,36.45
2022-12-12T17:09:01.987Z,36.55
2022-12-12T17:11:29.136Z,37.55
2022-12-12T17:13:56.275Z,37.92
2022-12-12T17:16:27.726Z,38.13
2022-12-12T17:18:55.304Z,38.53
2022-12-12T17:21:22.512Z,41.88
2022-12-12T17:23:49.914Z,38.05
2022-12-12T17:26:17.259Z,40.80
2022-12-12T17:28:44.384Z,40.30
2022-12-12T17:31:11.608Z,39.75
2022-12-12T17:33:49.545Z,40.67
2022-12-12T17:36:17.441Z,42.97
2022-12-12T17:38:45.171Z,43.08
2022-12-12T17:41:12.723Z,42.90
2022-12-12T17:43:41.344Z,42.42
2022-12-12T17:46:14.143Z,43.20
2022-12-12T17:48:43.103Z,46.17
2022-12-12T17:51:12.029Z,44.85
2022-12-12T17:53:39.259Z,45.53
2022-12-12T17:56:07.222Z,48.25
2022-12-12T17:58:38.760Z,43.63
2022-12-12T18:01:16.904Z,44.97
2022-12-12T18:03:44.772Z,43.03
2022-12-12T18:06:12.291Z,44.17
2022-12-12T18:08:39.641Z,46.05
2022-12-12T18:11:10.876Z,45.30
2022-12-12T18:13:41.760Z,45.33
2022-12-12T18:16:10.625Z,46.65
2022-12-12T18:18:38.164Z,45.92
2022-12-12T18:21:06.232Z,46.92
2022-12-12T18:23:33.875Z,49.85
2022-12-12T18:26:05.406Z,49.35
2022-12-12T18:28:32.640Z,49.03
2022-12-12T18:30:59.840Z,50.35
2022-12-12T18:33:27.035Z,49.30
2022-12-12T18:36:04.925Z,50.95
2022-12-12T18:38:32.529Z,48.40
2022-12-12T18:40:59.707Z,51.33
2022-12-12T18:43:27.764Z,49.88
2022-12-12T18:45:55.584Z,46.83
2022-12-12T18:48:23.151Z,50.17
2022-12-12T18:50:50.379Z,49.33
2022-12-12T18:53:17.663Z,49.88
2022-12-12T18:55:45.232Z,48.78
2022-12-12T18:58:12.480Z,47.85
2022-12-12T19:00:40.377Z,48.30
2022-12-12T19:03:08.219Z,50.30
2022-12-12T19:05:40.555Z,50.85
2022-12-12T19:08:08.003Z,50.65
2022-12-12T19:10:38.815Z,49.45
2022-12-12T19:13:06.116Z,51.08
2022-12-12T19:15:34.894Z,53.58
2022-12-12T19:18:02.088Z,61.58
2022-12-12T19:20:29.270Z,60.00
2022-12-12T19:22:56.457Z,59.60
2022-12-12T19:25:23.603Z,61.67
2022-12-12T19:27:50.755Z,62.65
2022-12-12T19:30:18.553Z,63.42
2022-12-12T19:32:48.948Z,62.40
2022-12-12T19:35:16.563Z,60.35
2022-12-12T19:37:43.691Z,58.97
2022-12-12T19:40:11.464Z,57.38
2022-12-12T19:42:39.107Z,56.35
2022-12-12T19:45:07.265Z,53.00
2022-12-12T19:47:34.630Z,54.30
2022-12-12T19:50:01.875Z,49.95
2022-12-12T19:52:29.287Z,52.90
2022-12-12T19:54:56.407Z,49.55
2022-12-12T19:57:26.266Z,50.30
2022-12-12T19:59:53.686Z,47.47
2022-12-12T20:02:20.896Z,47.72
2022-12-12T20:04:48.115Z,47.33
2022-12-12T20:07:15.230Z,48.88
2022-12-12T20:09:42.478Z,49.45
2022-12-12T20:12:09.821Z,47.75
2022-12-12T20:14:36.984Z,48.30
2022-12-12T20:17:04.354Z,47.45
2022-12-12T20:19:31.947Z,50.17
2022-12-12T20:22:01.350Z,52.03
2022-12-12T20:24:29.888Z,52.50
2022-12-12T20:26:57.403Z,49.92
2022-12-12T20:29:24.893Z,50.65
2022-12-12T20:31:52.306Z,50.90
2022-12-12T20:34:24.647Z,50.72
2022-12-12T20:36:55.023Z,50.03
2022-12-12T20:39:22.601Z,51.35
2022-12-12T20:41:50.685Z,53.53
2022-12-12T20:44:18.051Z,51.25
2022-12-12T20:46:46.579Z,56.08
2022-12-12T20:49:15.827Z,51.42
2022-12-12T20:51:55.325Z,53.92
2022-12-12T20:54:24.614Z,54.35
2022-12-12T20:56:52.223Z,56.70
2022-12-12T20:59:19.405Z,54.83
2022-12-12T21:01:47.619Z,57.08
2022-12-12T21:04:15.221Z,54.15
2022-12-12T21:06:44.591Z,53.58
2022-12-12T21:09:16.252Z,55.60
2022-12-12T21:11:45.014Z,56.22
2022-12-12T21:14:12.332Z,54.92
2022-12-12T21:16:40.068Z,52.90
2022-12-12T21:19:09.646Z,51.47
2022-12-12T21:21:37.374Z,51.63
2022-12-12T21:24:04.825Z,55.10
2022-12-12T21:26:32.448Z,55.67
2022-12-12T21:29:01.752Z,55.67
2022-12-12T21:31:30.463Z,54.00
2022-12-12T21:33:57.880Z,53.92
2022-12-12T21:36:25.673Z,53.42
2022-12-12T21:38:53.887Z,53.45
2022-12-12T21:41:22.000Z,50.47
2022-12-12T21:43:49.572Z,56.13
2022-12-12T21:46:18.429Z,51.42
2022-12-12T21:48:45.710Z,53.88
2022-12-12T21:51:16.747Z,52.80
2022-12-12T21:53:44.256Z,51.58
2022-12-12T21:56:16.308Z,49.80
2022-12-12T21:58:44.472Z,50.88
2022-12-12T22:01:16.202Z,51.88
2022-12-12T22:03:43.912Z,53.50
2022-12-12T22:06:11.151Z,52.03
2022-12-12T22:08:38.495Z,49.83
2022-12-12T22:11:07.531Z,51.78
2022-12-12T22:13:40.252Z,49.53
2022-12-12T22:16:10.627Z,49.90
2022-12-12T22:18:37.859Z,48.10
2022-12-12T22:21:06.015Z,50.60
2022-12-12T22:23:34.602Z,45.80
2022-12-12T22:26:01.832Z,49.72
2022-12-12T22:28:29.095Z,45.78
2022-12-12T22:30:56.461Z,48.67
2022-12-12T22:33:23.813Z,47.15
2022-12-12T22:35:50.948Z,46.28
2022-12-12T22:38:18.089Z,46.92
2022-12-12T22:40:53.291Z,46.85
2022-12-12T22:43:20.407Z,44.88
2022-12-12T22:45:47.575Z,44.08
2022-12-12T22:48:14.781Z,46.78
2022-12-12T22:50:42.020Z,44.95
2022-12-12T22:53:09.152Z,43.58
2022-12-12T22:55:36.852Z,38.35
2022-12-12T22:58:03.992Z,43.35
2022-12-12T23:00:31.234Z,43.53
2022-12-12T23:02:58.454Z,43.45
2022-12-12T23:05:26.039Z,42.47
2022-12-12T23:07:53.235Z,41.38
2022-12-12T23:10:20.431Z,40.95
2022-12-12T23:12:47.582Z,40.33
2022-12-12T23:15:15.078Z,39.63
2022-12-12T23:17:42.388Z,40.38
2022-12-12T23:20:10.822Z,39.55
2022-12-12T23:22:38.032Z,40.15
2022-12-12T23:25:05.345Z,40.45
2022-12-12T23:27:32.552Z,40.60
2022-12-12T23:29:59.775Z,41.85
2022-12-12T23:32:26.930Z,39.08
2022-12-12T23:34:54.214Z,38.38
2022-12-12T23:37:21.518Z,38.45
2022-12-12T23:39:51.256Z,38.75
2022-12-12T23:42:18.549Z,39.75
2022-12-12T23:44:50.659Z,39.53
2022-12-12T23:47:18.207Z,37.65
2022-12-12T23:49:45.329Z,37.95
2022-12-12T23:52:12.543Z,35.72
2022-12-12T23:54:39.703Z,38.35
2022-12-12T23:57:06.986Z,39.20
2022-12-12T23:59:34.220Z,36.50
